Portada
METAR-TAF:

METAR-TAF

Aeropuertos :

Aeropuerto de Badajoz

Badajoz, España

latitud: 38-53N, longitud: 006-49W, altitud: 185 m

Observación

El informe se hizo hace 28 minutos, a las 17:30 UTC
Viento 1 kt del norte
Temperatura 10°C
Humedad 76%
Presión 1027 hPa
Visibilidad 10 km o más
sin nubes por debajo de 1500 m y sin presencia de cumulonimbus.

METAR: LEBZ 301730Z 36001KT CAVOK 10/06 Q1027

Hora: 18:58 (17:58 UTC)

Pronóstico

El informe se hizo hace 3 horas y 58 minutos, a las 14:00 UTC
Pronóstico válido del 30 a las 15 UTC al 01 a las 15 UTC
Viento 3 kt con dirección variable
Visibilidad 10 km o más
Escasas nubes a una altura de 2500 ft
Probabilidad 40% :
Temporalmente
del 01 a las 00 UTC al 01 a las 08 UTC
Visibilidad: 4000 m
Cielo nuboso a una altura de 500 ft
neblina

TAF: LEBZ 301400Z 3015/0115 VRB03KT 9999 FEW025 TX15/0115Z TN02/0107Z PROB40 TEMPO 0100/0108 4000 BR BKN005

Observaciones y pronósticos meteorológicos de más de 4000 aeropuertos (mensajes METAR y TAF).

Los puntos amarillos y rojos representan las estaciones disponibles.

Ponga el ratón en el punto deseado para ver el nombre de la estación.

Haga clic para ver las observaciones y los pronósticos meteorológicos.

Para cambiar el mapa : haga clic en los botones verdes con una cruz de color negro para hacer un zoom, en el botón verde con un guión para alejar o en las flechas verdes para mapas adyacentes.


METAR-TAF: